Time;durP1;ratioP1;P1;durP2;ratioP2;P2;SDS_P1;SDS_P2;PMS_P1;PMS_P2;Temp;Humidity;BMP_temperature;BMP_pressure;BME280_temperature;BME280_humidity;BME280_pressure;Samples;Min_cycle;Max_cycle;Signal;HPM_P1;HPM_P2
2023/06/07 00:03:36;;;;;;;57.38;21.13;;;17.60;99.90;;;16.29;100.00;100113.47;10046796;28;98694;-88
2023/06/07 00:08:40;;;;;;;53.15;20.35;;;17.60;99.90;;;16.30;100.00;100114.28;10049665;28;98182;-88
2023/06/07 00:13:43;;;;;;;43.72;19.33;;;17.60;99.90;;;16.32;100.00;100117.59;10022073;29;96784;-88
2023/06/07 00:18:45;;;;;;;61.45;23.25;;;17.60;99.90;;;16.26;100.00;100108.53;10068184;28;98889;-88
2023/06/07 00:23:49;;;;;;;29.38;18.48;;;17.60;99.90;;;16.29;100.00;100112.66;10039788;28;98956;-87
2023/06/07 00:28:52;;;;;;;32.92;17.40;;;17.60;99.90;;;16.26;100.00;100105.03;10046704;28;96525;-87
2023/06/07 00:33:55;;;;;;;29.35;17.00;;;17.60;99.90;;;16.20;100.00;100097.81;10042571;28;96768;-89
2023/06/07 00:38:58;;;;;;;27.10;14.85;;;17.50;99.90;;;16.19;100.00;100107.72;10044130;28;97462;-88
2023/06/07 00:44:02;;;;;;;23.23;14.25;;;17.50;99.90;;;16.19;100.00;100107.72;10042102;28;97270;-87
2023/06/07 00:49:05;;;;;;;28.25;16.13;;;17.50;99.90;;;16.14;100.00;100099.47;10052912;28;96878;-88
2023/06/07 00:54:08;;;;;;;25.35;14.48;;;17.40;99.90;;;16.07;100.00;100085.22;10052863;28;97073;-87
2023/06/07 00:59:12;;;;;;;26.60;15.45;;;17.40;99.90;;;16.05;100.00;100095.31;10073768;28;97729;-87
2023/06/07 01:04:18;;;;;;;30.05;15.35;;;17.30;99.90;;;15.99;100.00;100101.50;10053553;28;97449;-87
2023/06/07 01:09:22;;;;;;;23.42;14.43;;;17.20;99.90;;;15.95;100.00;100101.09;10038614;28;97700;-88
2023/06/07 01:14:26;;;;;;;35.88;17.65;;;17.20;99.90;;;15.86;100.00;100094.28;10039207;28;96618;-87
2023/06/07 01:19:30;;;;;;;24.77;14.88;;;17.20;99.90;;;15.84;100.00;100093.69;10035905;29;97096;-87
2023/06/07 01:24:35;;;;;;;25.40;15.95;;;17.20;99.90;;;15.78;100.00;100084.59;10028529;28;96675;-87
2023/06/07 01:29:39;;;;;;;30.30;15.95;;;17.10;99.90;;;15.73;100.00;100097.78;10024324;28;96550;-87
2023/06/07 01:34:42;;;;;;;29.98;16.30;;;17.10;99.90;;;15.70;100.00;100078.59;10071036;28;96602;-87
2023/06/07 01:39:46;;;;;;;36.30;14.85;;;17.10;99.90;;;15.69;100.00;100091.16;10027919;28;98394;-87
2023/06/07 01:44:51;;;;;;;40.65;17.65;;;17.00;99.90;;;15.71;100.00;100074.88;10042640;28;96608;-87
2023/06/07 01:49:54;;;;;;;33.65;16.92;;;17.00;99.90;;;15.71;100.00;100074.88;10022281;28;96743;-88
2023/06/07 01:54:57;;;;;;;32.88;16.65;;;17.00;99.90;;;15.74;100.00;100077.16;10060350;28;97619;-87
2023/06/07 02:00:28;;;;;;;26.45;14.38;;;17.00;99.90;;;15.71;100.00;100075.72;10036519;28;96733;-87
2023/06/07 02:05:40;;;;;;;26.10;15.67;;;17.00;99.90;;;15.71;100.00;100075.72;10062490;28;96661;-87
2023/06/07 02:10:46;;;;;;;177.55;25.60;;;17.00;99.90;;;15.71;100.00;100083.78;10034347;28;97325;-88
2023/06/07 02:15:49;;;;;;;19.10;11.43;;;17.10;99.90;;;15.68;100.00;100073.44;10063860;28;98399;-87
2023/06/07 02:20:52;;;;;;;24.10;12.88;;;17.00;99.90;;;15.67;100.00;100085.19;10063385;28;96575;-87
2023/06/07 02:25:55;;;;;;;48.88;16.95;;;17.00;99.90;;;15.67;100.00;100077.16;10059879;28;98468;-87
2023/06/07 02:30:58;;;;;;;26.80;13.50;;;17.00;99.90;;;15.65;100.00;100076.56;10029455;28;96734;-87
2023/06/07 02:36:02;;;;;;;33.03;13.25;;;17.00;99.90;;;15.61;100.00;100069.91;10062672;28;98607;-88
2023/06/07 02:41:07;;;;;;;39.88;14.80;;;17.00;99.90;;;15.66;100.00;100080.06;10054182;28;97956;-88
2023/06/07 02:46:11;;;;;;;47.13;15.98;;;17.00;99.90;;;15.66;100.00;100069.34;10058830;28;96985;-88
2023/06/07 02:51:14;;;;;;;35.17;17.05;;;17.00;99.90;;;15.62;100.00;100060.03;10071228;28;97273;-87
2023/06/07 02:56:17;;;;;;;21.70;11.77;;;17.00;99.90;;;15.66;100.00;100067.47;10066925;28;98089;-88
2023/06/07 03:01:21;;;;;;;22.52;13.45;;;17.00;99.90;;;15.67;100.00;100081.69;10062463;28;96665;-87
2023/06/07 03:06:29;;;;;;;48.35;15.05;;;17.00;99.90;;;15.64;100.00;100077.56;10054193;28;98020;-88
2023/06/07 03:11:32;;;;;;;32.00;14.63;;;17.00;99.90;;;15.67;100.00;100087.06;10048289;29;98737;-88
2023/06/07 03:16:35;;;;;;;34.15;16.05;;;17.00;99.90;;;15.63;100.00;100065.19;10040484;28;96702;-87
2023/06/07 03:21:38;;;;;;;192.70;25.00;;;17.00;99.90;;;15.69;100.00;100091.16;10068758;28;96573;-87
2023/06/07 03:26:42;;;;;;;32.38;15.40;;;17.00;99.90;;;15.65;100.00;100084.59;10041734;28;97559;-87
2023/06/07 03:31:47;;;;;;;24.48;14.65;;;17.00;99.90;;;15.60;100.00;100087.00;10060786;28;96485;-87
2023/06/07 03:36:50;;;;;;;27.08;15.40;;;16.90;99.90;;;15.55;100.00;100078.75;10052113;28;97358;-87
2023/06/07 03:41:53;;;;;;;29.40;15.25;;;16.90;99.90;;;15.50;100.00;100068.66;10022645;28;96789;-88
2023/06/07 03:46:56;;;;;;;34.85;15.63;;;16.90;99.90;;;15.57;100.00;100081.22;10032698;28;97259;-88
2023/06/07 03:52:00;;;;;;;35.25;18.10;;;16.90;99.90;;;15.56;100.00;100079.59;10040805;28;96636;-88
2023/06/07 03:57:03;;;;;;;25.95;15.90;;;17.00;99.90;;;15.65;100.00;100089.09;10059585;28;96807;-88
2023/06/07 04:02:07;;;;;;;145.68;21.83;;;17.00;99.90;;;15.72;100.00;100095.31;10036298;28;98449;-88
2023/06/07 04:07:11;;;;;;;23.52;13.98;;;17.10;99.90;;;15.69;100.00;100093.84;10057234;28;97266;-88
2023/06/07 04:26:53;;;;;;;;;;;17.10;99.90;;;16.22;100.00;100090.38;10596466;27;1438580;-90
2023/06/07 04:31:58;;;;;;;17.27;10.35;;;17.60;99.90;;;16.16;100.00;100084.00;10591703;27;96670;-89
2023/06/07 04:37:03;;;;;;;22.30;12.75;;;17.60;99.90;;;16.12;100.00;100093.47;10580748;27;96624;-88
2023/06/07 04:42:09;;;;;;;18.42;12.00;;;17.50;99.90;;;16.11;100.00;100099.03;10574748;27;96662;-88
2023/06/07 04:47:12;;;;;;;35.38;17.75;;;17.40;99.90;;;16.10;100.00;100095.53;10545940;27;96962;-88
2023/06/07 04:52:19;;;;;;;162.23;30.65;;;17.40;99.90;;;16.07;100.00;100087.88;10546875;27;96481;-88
2023/06/07 04:57:23;;;;;;;25.02;15.43;;;17.50;99.90;;;16.10;100.00;100092.84;10559192;27;96707;-89
2023/06/07 05:02:26;;;;;;;23.55;13.05;;;17.50;99.90;;;16.09;100.00;100101.94;10557908;27;96599;-89
2023/06/07 05:07:32;;;;;;;35.58;16.02;;;17.50;99.90;;;16.10;100.00;100098.22;10547080;27;96396;-88
2023/06/07 05:12:35;;;;;;;17.75;10.93;;;17.50;99.90;;;16.13;100.00;100107.69;10564306;27;96690;-89
2023/06/07 05:17:39;;;;;;;17.50;11.80;;;17.50;99.90;;;16.18;100.00;100100.69;10563609;27;96444;-89
2023/06/07 05:22:43;;;;;;;42.67;15.30;;;17.50;99.90;;;16.20;100.00;100104.00;10562903;27;96580;-89
2023/06/07 05:27:49;;;;;;;56.40;14.23;;;17.60;99.90;;;16.22;100.00;100099.25;10535824;27;96689;-89
2023/06/07 05:33:11;;;;;;;22.05;16.23;;;17.60;99.90;;;16.20;100.00;100100.50;10556337;27;96480;-90
2023/06/07 05:38:15;;;;;;;32.63;14.98;;;17.60;99.90;;;16.24;100.00;100109.75;10558128;27;96813;-90
2023/06/07 05:43:18;;;;;;;17.33;11.35;;;17.60;99.90;;;16.20;100.00;100104.00;10534124;27;96570;-90
2023/06/07 05:48:21;;;;;;;30.92;10.90;;;17.60;99.90;;;16.14;100.00;100098.66;10502029;27;96603;-91
2023/06/07 05:53:25;;;;;;;12.15;9.13;;;17.50;99.90;;;16.16;100.00;100118.00;10541244;27;96597;-91
2023/06/07 05:58:30;;;;;;;21.80;9.95;;;17.50;99.90;;;16.08;100.00;100108.34;10558974;27;98910;-91
2023/06/07 06:03:33;;;;;;;28.85;12.50;;;17.50;99.90;;;16.10;100.00;100116.97;10568739;27;96449;-93
2023/06/07 06:08:39;;;;;;;23.60;11.35;;;17.50;99.90;;;16.16;100.00;100112.66;10596690;27;96473;-92
2023/06/07 06:13:43;;;;;;;18.65;10.15;;;17.50;99.90;;;16.19;100.00;100106.88;10551393;27;96642;-92
2023/06/07 06:18:46;;;;;;;12.05;7.40;;;17.60;99.90;;;16.25;100.00;100111.41;10535666;27;96585;-93
2023/06/07 06:23:49;;;;;;;32.30;8.23;;;17.60;99.90;;;16.22;100.00;100117.19;10522204;27;96533;-95
2023/06/07 06:28:55;;;;;;;58.13;7.97;;;17.60;99.90;;;16.20;100.00;100101.31;10543836;27;96688;-95
2023/06/07 06:33:59;;;;;;;8.88;6.53;;;17.60;99.90;;;16.29;100.00;100113.47;10529246;27;96974;-95
2023/06/07 06:39:04;;;;;;;8.55;6.10;;;17.70;99.90;;;16.34;100.00;100115.53;10526913;27;97017;-95
2023/06/07 06:44:07;;;;;;;5.60;4.55;;;17.70;99.90;;;16.46;100.00;100121.91;10563366;27;96725;-95
2023/06/07 06:49:09;;;;;;;22.85;6.72;;;17.80;99.90;;;16.60;100.00;100126.22;10534495;27;97557;-96
2023/06/07 06:54:15;;;;;;;8.52;5.78;;;17.90;99.90;;;16.76;100.00;100116.94;10558371;27;97241;-96
2023/06/07 06:59:18;;;;;;;6.43;4.00;;;18.10;99.90;;;16.82;100.00;100116.09;10550711;27;98142;-96
2023/06/07 07:04:21;;;;;;;9.68;5.20;;;18.20;99.90;;;16.91;100.00;100108.63;10548675;27;96627;-96
2023/06/07 07:09:25;;;;;;;25.13;5.60;;;18.30;99.90;;;16.99;100.00;100118.34;10544677;27;96342;-96
2023/06/07 07:14:29;;;;;;;23.85;5.97;;;18.40;99.90;;;17.13;100.00;100119.94;10556177;27;96492;-96
2023/06/07 07:19:45;;;;;;;29.85;7.40;;;18.50;99.90;;;17.20;100.00;100118.03;10594899;27;96170;-96
2023/06/07 07:25:16;;;;;;;23.63;6.80;;;18.60;99.90;;;17.33;100.00;100118.00;10417991;22;96514;-95
2023/06/07 07:30:19;;;;;;;13.70;6.70;;;18.70;99.90;;;17.37;100.00;100137.19;10419334;28;96632;-93
2023/06/07 07:35:23;;;;;;;12.32;6.50;;;18.80;99.90;;;17.41;100.00;100127.66;10377959;28;98481;-94
2023/06/07 07:40:27;;;;;;;17.90;7.00;;;18.80;99.90;;;17.47;100.00;100136.72;10389134;28;96659;-94
2023/06/07 07:45:30;;;;;;;11.90;6.50;;;18.80;99.90;;;17.42;100.00;100131.16;10401061;28;97059;-93
2023/06/07 07:50:37;;;;;;;20.63;6.72;;;18.80;99.90;;;17.40;100.00;100131.38;10382481;28;96632;-95
2023/06/07 07:55:40;;;;;;;28.85;5.90;;;18.80;99.90;;;17.38;100.00;100142.31;10372691;28;96694;-94
2023/06/07 08:00:43;;;;;;;23.80;5.78;;;18.80;99.90;;;17.26;100.00;100141.34;10389174;28;96592;-93
2023/06/07 08:05:46;;;;;;;16.58;5.63;;;18.70;99.90;;;17.20;100.00;100136.00;10379958;28;96653;-92
2023/06/07 08:10:50;;;;;;;22.60;5.78;;;18.70;99.90;;;17.12;100.00;100145.94;10363958;28;97523;-95
2023/06/07 08:15:53;;;;;;;11.93;5.47;;;18.70;99.90;;;17.11;100.00;100149.69;10372159;28;96560;-93
2023/06/07 08:20:56;;;;;;;13.95;5.65;;;18.60;99.90;;;17.22;100.00;100148.19;10393534;27;96747;-94
2023/06/07 08:26:00;;;;;;;20.17;5.07;;;18.70;99.90;;;17.25;100.00;100145.06;10405585;27;96707;-93
2023/06/07 08:31:03;;;;;;;14.50;5.95;;;18.70;99.90;;;17.34;100.00;100143.81;10394249;27;96439;-93
2023/06/07 08:36:07;;;;;;;22.20;6.43;;;18.80;99.90;;;17.41;100.00;100142.97;10415202;27;96698;-92
2023/06/07 08:41:10;;;;;;;44.20;7.53;;;18.80;99.90;;;17.45;100.00;100138.78;10427900;27;96601;-92
2023/06/07 08:46:15;;;;;;;18.38;6.80;;;18.80;99.90;;;17.48;100.00;100144.56;10427061;27;96497;-93
2023/06/07 08:51:20;;;;;;;12.15;6.55;;;18.90;99.90;;;17.57;100.00;100137.06;10410182;27;97500;-92
2023/06/07 08:56:28;;;;;;;8.68;4.63;;;19.00;99.90;;;17.70;100.00;100138.88;10438344;27;97530;-92
2023/06/07 09:01:36;;;;;;;10.35;6.65;;;19.10;99.90;;;17.78;100.00;100128.72;10419505;27;97353;-92
2023/06/07 09:06:39;;;;;;;12.48;5.70;;;19.20;99.90;;;17.83;100.00;100131.59;10439458;27;96648;-92
2023/06/07 09:11:42;;;;;;;13.68;6.95;;;19.30;99.90;;;17.77;100.00;100128.94;10411621;27;97675;-92
2023/06/07 09:16:56;;;;;;;12.60;5.80;;;19.40;99.90;;;17.83;100.00;100123.53;10377936;27;96711;-91
2023/06/07 09:22:01;;;;;;;19.65;7.20;;;19.40;99.90;;;17.80;100.00;100123.94;10409872;27;96751;-90
2023/06/07 09:27:05;;;;;;;12.90;6.43;;;19.40;99.90;;;17.82;100.00;100129.94;10406952;27;96497;-91
2023/06/07 09:32:26;;;;;;;21.88;9.43;;;19.30;99.90;;;17.83;100.00;100150.41;10433993;27;96617;-91
2023/06/07 09:37:44;;;;;;;12.20;9.27;;;19.30;99.90;;;17.75;100.00;100150.66;10387700;27;96835;-91
2023/06/07 09:42:58;;;;;;;24.23;10.45;;;19.20;99.90;;;17.72;100.00;100151.09;10421907;27;98259;-92
2023/06/07 09:48:09;;;;;;;26.17;9.60;;;19.20;99.90;;;17.72;100.00;100155.63;10409196;28;96605;-91
2023/06/07 09:53:12;;;;;;;10.90;9.52;;;19.20;99.90;;;17.73;100.00;100149.22;10410530;27;96543;-91
2023/06/07 09:58:22;;;;;;;12.20;9.50;;;19.10;99.90;;;17.75;100.00;100142.59;10433217;27;96532;-91
2023/06/07 10:03:27;;;;;;;17.08;7.60;;;19.20;99.90;;;17.79;100.00;100148.34;10452236;27;96681;-90
2023/06/07 10:08:31;;;;;;;14.13;10.73;;;19.20;99.90;;;17.85;100.00;100139.44;10397535;27;96924;-90
2023/06/07 10:13:36;;;;;;;33.45;9.50;;;19.30;99.90;;;17.87;100.00;100138.19;10402510;27;96686;-90
2023/06/07 10:18:43;;;;;;;16.00;9.80;;;19.30;99.90;;;18.02;100.00;100134.34;10470159;27;96687;-91
2023/06/07 10:23:58;;;;;;;20.48;9.20;;;19.50;99.90;;;18.19;100.00;100135.47;10440360;27;96698;-91
2023/06/07 10:29:15;;;;;;;11.13;10.02;;;19.60;99.90;;;18.36;100.00;100125.00;10392174;27;96628;-92
2023/06/07 10:34:22;;;;;;;9.55;7.47;;;19.90;99.90;;;18.58;100.00;100125.38;10403795;27;96874;-91
2023/06/07 10:39:25;;;;;;;29.08;9.32;;;20.10;99.90;;;18.74;100.00;100126.72;10408824;27;96695;-90
2023/06/07 10:44:30;;;;;;;27.05;8.93;;;20.30;99.90;;;18.89;100.00;100121.78;10396815;27;97094;-92
2023/06/07 10:49:37;;;;;;;10.55;9.30;;;20.50;99.90;;;19.08;100.00;100123.44;10425796;27;96709;-94
2023/06/07 10:54:44;;;;;;;17.85;8.70;;;20.60;99.90;;;19.12;100.00;100116.53;10430483;27;96735;-93
2023/06/07 10:59:48;;;;;;;10.38;9.02;;;20.70;99.90;;;19.20;100.00;100118.94;10349826;28;97547;-92
2023/06/07 11:05:00;;;;;;;10.65;9.10;;;20.70;99.90;;;19.20;100.00;100126.22;10373615;28;96629;-93
2023/06/07 11:10:07;;;;;;;29.85;9.15;;;20.70;99.90;;;19.16;100.00;100127.69;10377827;28;96631;-93
2023/06/07 11:15:17;;;;;;;8.70;6.90;;;20.70;99.90;;;19.11;100.00;100128.38;10386267;28;98621;-93
2023/06/07 11:20:37;;;;;;;30.13;8.77;;;20.60;99.90;;;19.08;100.00;100117.25;10379409;28;98247;-91
2023/06/07 11:25:40;;;;;;;32.65;8.52;;;20.50;99.90;;;18.98;100.00;100118.56;10346806;28;96705;-91
2023/06/07 11:30:43;;;;;;;12.48;8.05;;;20.60;99.90;;;19.10;100.00;100115.94;10348627;28;97817;-92
2023/06/07 11:35:46;;;;;;;20.65;8.25;;;20.60;99.90;;;19.13;100.00;100110.13;10350349;28;96551;-91
2023/06/07 11:40:50;;;;;;;13.50;7.63;;;20.70;99.90;;;19.21;100.00;100114.38;10380304;28;96472;-92
2023/06/07 11:45:58;;;;;;;11.10;7.45;;;20.80;99.90;;;19.33;100.00;100115.25;10358801;28;96693;-91
2023/06/07 11:51:01;;;;;;;13.50;6.88;;;20.90;99.90;;;19.40;100.00;100110.59;10338051;28;96669;-92
2023/06/07 11:56:04;;;;;;;8.00;7.20;;;21.00;99.90;;;19.55;100.00;100107.47;10383778;28;97517;-91
2023/06/07 12:01:07;;;;;;;49.55;8.15;;;21.10;99.90;;;19.69;100.00;100102.78;10373200;28;97730;-91
2023/06/07 12:06:11;;;;;;;24.50;7.50;;;21.20;99.90;;;19.72;100.00;100096.91;10362706;28;96972;-93
2023/06/07 12:11:14;;;;;;;15.60;6.75;;;21.40;99.90;;;19.85;100.00;100077.84;10368689;28;96655;-93
2023/06/07 12:16:21;;;;;;;8.38;6.03;;;21.50;99.90;;;19.98;100.00;100074.94;10350432;28;96661;-92
2023/06/07 12:21:24;;;;;;;6.18;5.55;;;21.60;99.90;;;20.15;100.00;100063.44;10371519;27;96695;-93
2023/06/07 12:26:28;;;;;;;15.02;6.20;;;21.80;99.90;;;20.19;100.00;100062.75;10385109;28;96658;-91
2023/06/07 12:31:40;;;;;;;6.88;5.68;;;21.90;99.90;;;20.25;100.00;100039.41;10428887;28;96567;-94
2023/06/07 12:36:44;;;;;;;6.75;5.38;;;21.90;99.90;;;20.41;100.00;100038.72;10389742;28;96618;-93
2023/06/07 12:41:47;;;;;;;10.43;5.68;;;22.10;99.90;;;20.57;100.00;100031.78;10357776;28;97205;-93
2023/06/07 12:46:50;;;;;;;20.67;6.22;;;22.30;99.90;;;20.60;100.00;100033.19;10407704;28;97580;-93
2023/06/07 12:51:54;;;;;;;9.07;5.95;;;22.50;99.90;;;20.83;100.00;100020.47;10355187;28;96579;-93
2023/06/07 12:56:57;;;;;;;20.35;6.70;;;22.70;99.90;;;21.05;100.00;100022.47;10370888;28;96644;-93
2023/06/07 13:02:00;;;;;;;31.27;6.55;;;23.10;99.90;;;21.31;100.00;100024.66;10389176;28;96671;-93
2023/06/07 13:07:03;;;;;;;28.40;5.90;;;23.40;99.90;;;21.40;100.00;100018.84;10409065;28;96711;-93
2023/06/07 13:12:08;;;;;;;10.40;6.10;;;23.60;99.90;;;21.54;100.00;100015.59;10396750;28;98524;-92
2023/06/07 13:17:11;;;;;;;24.38;7.75;;;23.60;99.90;;;21.63;100.00;100024.13;10351647;28;97485;-92
2023/06/07 13:22:15;;;;;;;8.88;5.72;;;23.50;99.90;;;21.60;100.00;100013.81;10382642;27;96673;-92
2023/06/07 13:27:19;;;;;;;19.00;6.18;;;23.50;99.90;;;21.62;100.00;100008.97;10346496;28;96733;-92
2023/06/07 13:32:22;;;;;;;24.35;6.32;;;23.50;99.90;;;21.63;100.00;100016.00;10368631;28;96559;-92
2023/06/07 13:37:26;;;;;;;16.42;7.20;;;23.50;99.90;;;21.45;100.00;100008.13;10397148;28;96813;-92
2023/06/07 13:42:29;;;;;;;15.27;6.03;;;23.30;99.90;;;21.55;100.00;99997.50;10369035;28;96631;-93
2023/06/07 13:47:31;;;;;;;8.07;5.10;;;23.30;99.90;;;21.66;100.00;100004.72;10378113;28;97452;-92
2023/06/07 13:52:36;;;;;;;59.42;8.68;;;23.40;99.90;;;21.70;100.00;100005.03;10380400;28;96840;-92
2023/06/07 13:57:40;;;;;;;9.70;6.10;;;23.50;99.90;;;21.67;100.00;99994.72;10369290;28;96597;-92
2023/06/07 14:02:43;;;;;;;13.30;6.70;;;23.50;99.90;;;21.69;100.00;99987.97;10392498;28;96462;-92
2023/06/07 14:07:46;;;;;;;15.18;5.70;;;23.50;99.90;;;21.59;100.00;99983.25;10408602;27;97606;-92
2023/06/07 14:12:50;;;;;;;17.02;5.93;;;23.40;99.90;;;21.54;100.00;99991.28;10388130;28;97562;-93
2023/06/07 14:17:53;;;;;;;8.05;5.25;;;23.30;99.90;;;21.35;100.00;99987.13;10367029;28;97559;-92
2023/06/07 14:22:56;;;;;;;12.48;5.18;;;23.00;99.90;;;21.16;100.00;99978.38;10349455;28;98297;-92
2023/06/07 14:28:00;;;;;;;5.18;4.68;;;22.80;99.90;;;20.99;100.00;99978.38;10366896;27;97181;-92
2023/06/07 14:33:03;;;;;;;5.72;5.10;;;22.60;99.90;;;20.91;100.00;99983.31;10363658;27;98082;-93
2023/06/07 14:38:06;;;;;;;15.50;6.00;;;22.50;99.90;;;20.75;100.00;99977.63;10360224;28;98169;-92
2023/06/07 14:43:09;;;;;;;9.40;5.88;;;22.30;99.90;;;20.64;100.00;99974.97;10371545;28;96897;-92
2023/06/07 14:48:12;;;;;;;12.05;5.90;;;22.20;99.90;;;20.53;100.00;99968.53;10364108;28;97256;-92
2023/06/07 14:53:15;;;;;;;8.07;5.32;;;22.00;99.90;;;20.36;100.00;99967.59;10365505;28;96756;-93
2023/06/07 14:58:18;;;;;;;11.90;7.30;;;21.90;99.90;;;20.04;100.00;99968.81;10376952;28;98105;-95
2023/06/07 15:03:21;;;;;;;8.10;7.35;;;21.70;99.90;;;19.69;100.00;99963.41;10355491;28;96581;-93
2023/06/07 15:08:25;;;;;;;10.85;8.63;;;21.40;99.90;;;19.48;100.00;99967.44;10339075;28;96694;-93
2023/06/07 15:13:28;;;;;;;10.27;9.20;;;21.10;99.90;;;19.22;100.00;99963.28;10349939;28;98337;-93
2023/06/07 15:18:31;;;;;;;10.60;9.60;;;20.80;99.90;;;19.02;100.00;99957.38;10364334;28;96724;-93
2023/06/07 15:23:33;;;;;;;12.05;10.25;;;20.60;99.90;;;18.91;100.00;99961.66;10402274;28;96790;-93
2023/06/07 15:28:37;;;;;;;9.88;8.30;;;20.40;99.90;;;18.81;100.00;99960.56;10387806;28;96688;-92
2023/06/07 15:33:40;;;;;;;9.90;8.90;;;20.30;99.90;;;18.79;100.00;99954.59;10367504;28;96648;-91
2023/06/07 15:38:52;;;;;;;14.40;8.50;;;20.30;99.90;;;18.80;100.00;99967.00;10353361;27;96747;-92
2023/06/07 15:43:56;;;;;;;10.20;8.75;;;20.30;99.90;;;18.84;100.00;99960.94;10359457;28;96830;-93
2023/06/07 15:48:59;;;;;;;9.35;8.45;;;20.40;99.90;;;18.88;100.00;99972.88;10362270;28;96565;-92
2023/06/07 15:54:02;;;;;;;10.18;7.78;;;20.40;99.90;;;18.99;100.00;99982.88;10377088;28;96598;-92
2023/06/07 15:59:05;;;;;;;8.55;7.65;;;20.50;99.90;;;19.25;100.00;99978.16;10377597;28;97418;-91
2023/06/07 16:04:08;;;;;;;7.38;6.63;;;20.80;99.90;;;19.52;100.00;99974.03;10371132;27;96862;-92
2023/06/07 16:09:11;;;;;;;7.35;6.60;;;21.10;99.90;;;19.77;100.00;99970.31;10360549;28;97187;-92
2023/06/07 16:14:16;;;;;;;8.05;6.35;;;21.40;99.90;;;19.89;100.00;99973.84;10346329;28;96689;-90
2023/06/07 16:19:19;;;;;;;7.70;6.57;;;21.50;99.90;;;19.98;100.00;99966.25;10353738;28;96610;-90
2023/06/07 16:24:22;;;;;;;6.82;6.13;;;21.60;99.90;;;20.14;100.00;99954.72;10350241;28;96597;-91
2023/06/07 16:29:27;;;;;;;7.72;5.25;;;21.70;99.90;;;20.51;100.00;99954.44;10384137;28;98688;-91
2023/06/07 16:34:30;;;;;;;7.07;4.65;;;22.00;99.90;;;20.90;100.00;99958.19;10360300;28;96484;-90
2023/06/07 16:39:33;;;;;;;6.65;5.45;;;22.40;99.90;;;21.07;100.00;99955.53;10360245;28;96499;-91
2023/06/07 16:44:36;;;;;;;5.47;4.85;;;22.60;99.90;;;21.38;100.00;99965.84;10366930;28;96880;-92
2023/06/07 16:49:40;;;;;;;8.38;5.05;;;22.80;99.90;;;21.42;100.00;99955.38;10369809;27;98321;-91
2023/06/07 16:54:43;;;;;;;6.28;4.18;;;23.00;99.90;;;21.61;100.00;99954.06;10386841;28;97720;-92
2023/06/07 16:59:46;;;;;;;5.80;3.85;;;23.30;99.90;;;21.92;100.00;99949.13;10366340;28;96844;-92
2023/06/07 17:04:49;;;;;;;13.23;3.90;;;23.60;99.90;;;22.07;100.00;99954.75;10344201;28;96526;-92
2023/06/07 17:09:52;;;;;;;4.50;3.70;;;23.90;99.90;;;22.10;100.00;99956.16;10376935;28;96657;-92
2023/06/07 17:14:55;;;;;;;6.15;4.03;;;23.90;99.90;;;21.92;100.00;99954.53;10372947;28;96537;-91
2023/06/07 17:19:58;;;;;;;9.43;4.40;;;23.70;99.90;;;21.55;100.00;99956.94;10361712;28;96580;-92
2023/06/07 17:25:01;;;;;;;5.20;4.68;;;23.30;99.90;;;21.13;100.00;99962.69;10371569;28;96619;-91
2023/06/07 17:30:08;;;;;;;4.63;3.97;;;22.80;99.90;;;20.70;100.00;99964.03;10367387;28;96526;-93
2023/06/07 17:35:14;;;;;;;5.55;4.45;;;22.30;99.90;;;20.39;100.00;99962.56;10337684;28;96589;-92
2023/06/07 17:40:17;;;;;;;8.80;4.55;;;21.90;99.90;;;20.20;100.00;99958.34;10367625;28;96660;-92
2023/06/07 17:45:20;;;;;;;5.35;4.53;;;21.70;99.90;;;20.08;100.00;99981.81;10403757;28;96583;-93
2023/06/07 17:50:24;;;;;;;4.82;4.32;;;21.50;99.90;;;19.86;100.00;99968.94;10366867;28;96714;-92
2023/06/07 17:55:49;;;;;;;5.20;4.70;;;21.40;99.90;;;19.61;100.00;99965.63;10356909;28;96528;-94
2023/06/07 18:00:52;;;;;;;8.25;4.57;;;21.10;99.90;;;19.38;100.00;99975.28;10400635;28;96536;-92
2023/06/07 18:05:55;;;;;;;4.78;4.25;;;20.80;99.90;;;19.22;100.00;99984.03;10368045;28;96478;-91
2023/06/07 18:10:59;;;;;;;6.32;4.72;;;20.70;99.90;;;19.05;100.00;99988.41;10384940;28;96569;-92
2023/06/07 18:16:02;;;;;;;6.05;4.10;;;20.50;99.90;;;18.95;100.00;99995.19;10407531;28;96607;-92
2023/06/07 18:21:09;;;;;;;52.35;7.75;;;20.40;99.90;;;18.89;100.00;99992.53;10390915;28;96706;-92
2023/06/07 18:26:12;;;;;;;47.90;6.80;;;20.30;99.90;;;18.89;100.00;100001.47;10393305;28;96579;-92
2023/06/07 18:31:15;;;;;;;5.95;4.20;;;20.30;99.90;;;18.87;100.00;100019.69;10361209;28;96771;-95
2023/06/07 18:36:20;;;;;;;7.07;4.47;;;20.40;99.90;;;18.84;100.00;100030.13;10357743;28;96700;-93
2023/06/07 18:41:23;;;;;;;12.05;4.85;;;20.30;99.90;;;18.82;100.00;100024.94;10376458;28;97548;-94
2023/06/07 18:46:26;;;;;;;6.03;4.70;;;20.30;99.90;;;18.84;100.00;100020.16;10372992;28;96906;-94
2023/06/07 18:51:29;;;;;;;13.48;5.65;;;20.40;99.90;;;18.88;100.00;100036.69;10363719;28;98466;-94
2023/06/07 18:56:32;;;;;;;6.10;5.10;;;20.40;99.90;;;18.84;100.00;100032.81;10389082;28;96672;-94
2023/06/07 19:01:37;;;;;;;41.58;7.65;;;20.30;99.90;;;18.79;100.00;100049.63;10366516;28;96935;-94
2023/06/07 19:06:54;;;;;;;34.03;6.47;;;20.30;99.90;;;18.80;100.00;100062.03;10376848;28;96695;-93
2023/06/07 19:11:58;;;;;;;17.48;6.70;;;20.30;99.90;;;18.65;100.00;100066.94;10342983;28;96645;-92
2023/06/07 19:17:02;;;;;;;51.92;9.23;;;20.30;99.90;;;18.49;100.00;100057.59;10379220;28;96732;-91
2023/06/07 19:22:07;;;;;;;9.95;8.13;;;20.10;99.90;;;18.41;100.00;100053.34;10367118;28;96682;-92
2023/06/07 19:27:11;;;;;;;29.00;9.88;;;20.00;99.90;;;18.32;100.00;100060.03;10376966;28;96897;-92
2023/06/07 19:32:14;;;;;;;32.83;11.02;;;19.90;99.90;;;18.19;100.00;100055.59;10365359;28;96839;-92
2023/06/07 19:37:18;;;;;;;9.77;8.40;;;19.80;99.90;;;18.12;100.00;100043.28;10356069;28;97489;-91
2023/06/07 19:42:22;;;;;;;9.15;8.07;;;19.70;99.90;;;18.08;100.00;100052.81;10366643;28;97047;-91
2023/06/07 19:47:28;;;;;;;44.45;9.48;;;19.70;99.90;;;18.03;100.00;100056.16;10369818;28;97097;-90
2023/06/07 19:52:31;;;;;;;43.88;9.45;;;19.60;99.90;;;17.95;100.00;100059.13;10370110;28;97582;-91
2023/06/07 19:57:34;;;;;;;19.08;8.18;;;19.50;99.90;;;17.84;100.00;100063.34;10348674;28;96569;-92
2023/06/07 20:02:37;;;;;;;13.80;7.45;;;19.40;99.90;;;17.79;100.00;100055.09;10367704;28;97043;-92
2023/06/07 20:07:40;;;;;;;15.68;7.68;;;19.40;99.90;;;17.73;100.00;100061.34;10392898;28;97225;-92
2023/06/07 20:12:45;;;;;;;105.38;12.32;;;19.30;99.90;;;17.76;100.00;100060.94;10364077;28;96714;-92
2023/06/07 20:17:48;;;;;;;32.95;8.50;;;19.30;99.90;;;17.63;100.00;100050.22;10371724;28;96775;-89
2023/06/07 20:22:51;;;;;;;8.75;6.35;;;19.20;99.90;;;17.58;100.00;100048.22;10383472;28;96874;-89
2023/06/07 20:27:56;;;;;;;9.25;6.30;;;19.20;99.90;;;17.53;100.00;100049.91;10362988;27;96679;-90
2023/06/07 20:32:59;;;;;;;10.13;6.40;;;19.10;99.90;;;17.50;100.00;100039.56;10371848;28;96855;-91
2023/06/07 20:38:02;;;;;;;11.00;6.75;;;19.00;99.90;;;17.48;100.00;100036.28;10376144;28;97416;-91
2023/06/07 20:43:05;;;;;;;9.70;7.10;;;19.00;99.90;;;17.44;100.00;100035.06;10328722;28;96550;-90
2023/06/07 20:48:08;;;;;;;8.85;7.65;;;19.00;99.90;;;17.44;100.00;100037.75;10361024;28;97737;-90